createdAt,value
2019-03-11T00:02:15.670Z,98730.79
2019-03-11T00:04:44.288Z,98727.94
2019-03-11T00:07:12.300Z,98720.17
2019-03-11T00:09:40.372Z,98730.78
2019-03-11T00:12:08.570Z,98733.93
2019-03-11T00:14:36.667Z,98705.28
2019-03-11T00:17:04.692Z,98707.45
2019-03-11T00:19:32.691Z,98703.08
2019-03-11T00:22:00.698Z,98702.39
2019-03-11T00:24:28.685Z,98709.37
2019-03-11T00:26:56.805Z,98706.31
2019-03-11T00:29:24.924Z,98713.34
2019-03-11T00:31:52.991Z,98720.72
2019-03-11T00:34:21.276Z,98730.78
2019-03-11T00:36:49.519Z,98717.62
2019-03-11T00:39:17.679Z,98720.18
2019-03-11T00:41:45.803Z,98731.91
2019-03-11T00:44:13.888Z,98723.02
2019-03-11T00:46:42.028Z,98720.80
2019-03-11T00:49:10.027Z,98721.89
2019-03-11T00:51:38.026Z,98725.12
2019-03-11T00:54:06.228Z,98714.67
2019-03-11T00:56:35.362Z,98712.34
2019-03-11T00:59:03.281Z,98716.38
2019-03-11T01:01:31.309Z,98707.97
2019-03-11T01:03:59.334Z,98710.38
2019-03-11T01:06:27.391Z,98714.41
2019-03-11T01:08:55.450Z,98699.53
2019-03-11T01:11:23.550Z,98705.22
2019-03-11T01:13:51.760Z,98701.39
2019-03-11T01:16:19.701Z,98699.76
2019-03-11T01:18:47.909Z,98707.36
2019-03-11T01:21:16.225Z,98705.45
2019-03-11T01:23:44.232Z,98702.65
2019-03-11T01:26:12.976Z,98695.73
2019-03-11T01:28:41.384Z,98699.45
2019-03-11T01:31:09.694Z,98689.87
2019-03-11T01:33:37.729Z,98685.22
2019-03-11T01:36:05.786Z,98684.17
2019-03-11T01:38:33.754Z,98683.19
2019-03-11T01:41:01.983Z,98668.52
2019-03-11T01:43:30.413Z,98665.41
2019-03-11T01:45:58.775Z,98667.97
2019-03-11T01:48:26.879Z,98661.83
2019-03-11T01:50:55.879Z,98654.81
2019-03-11T01:53:23.940Z,98642.44
2019-03-11T01:55:52.050Z,98641.94
2019-03-11T01:58:20.000Z,98639.99
2019-03-11T02:00:48.084Z,98636.48
2019-03-11T02:03:16.122Z,98629.35
2019-03-11T02:05:44.465Z,98629.52
2019-03-11T02:08:12.866Z,98627.13
2019-03-11T02:10:40.807Z,98623.44
2019-03-11T02:13:09.832Z,98614.59
2019-03-11T02:15:38.192Z,98612.63
2019-03-11T02:18:06.623Z,98609.23
2019-03-11T02:20:34.749Z,98614.25
2019-03-11T02:23:02.811Z,98610.57
2019-03-11T02:25:30.909Z,98611.12
2019-03-11T02:27:58.943Z,98604.68
2019-03-11T02:30:27.053Z,98602.67
2019-03-11T02:32:55.050Z,98593.73
2019-03-11T02:35:28.199Z,98581.17
2019-03-11T02:37:56.634Z,98572.62
2019-03-11T02:40:25.188Z,98564.73
2019-03-11T02:42:53.183Z,98557.52
2019-03-11T02:45:21.561Z,98557.22
2019-03-11T02:47:49.601Z,98554.46
2019-03-11T02:50:17.646Z,98536.57
2019-03-11T02:52:45.621Z,98543.02
2019-03-11T02:55:13.675Z,98543.96
2019-03-11T02:57:42.061Z,98535.89
2019-03-11T03:00:11.478Z,98529.59
2019-03-11T03:02:49.918Z,98530.72
2019-03-11T03:05:24.610Z,98522.98
2019-03-11T03:07:52.709Z,98522.37
2019-03-11T03:10:20.694Z,98521.11
2019-03-11T03:12:48.687Z,98517.13
2019-03-11T03:15:17.989Z,98517.36
2019-03-11T03:17:46.284Z,98511.56
2019-03-11T03:20:14.305Z,98520.73
2019-03-11T03:22:42.401Z,98513.14
2019-03-11T03:25:10.703Z,98517.06
2019-03-11T03:27:38.972Z,98509.76
2019-03-11T03:30:11.372Z,98503.85
2019-03-11T03:32:39.384Z,98516.23
2019-03-11T03:35:07.417Z,98511.88
2019-03-11T03:37:35.677Z,98508.27
2019-03-11T03:40:04.753Z,98509.19
2019-03-11T03:42:32.940Z,98515.63
2019-03-11T03:45:21.444Z,98514.67
2019-03-11T03:47:49.791Z,98511.38
2019-03-11T03:50:17.896Z,98505.52
2019-03-11T03:52:45.909Z,98519.16
2019-03-11T03:55:14.597Z,98508.03
2019-03-11T03:57:44.423Z,98509.40
2019-03-11T04:00:12.527Z,98515.57
2019-03-11T04:02:40.517Z,98514.06
2019-03-11T04:05:08.698Z,98512.19
2019-03-11T04:07:36.755Z,98506.54
2019-03-11T04:10:06.562Z,98498.27
2019-03-11T04:12:34.733Z,98498.43
2019-03-11T04:15:02.938Z,98495.72
2019-03-11T04:17:30.992Z,98493.94
2019-03-11T04:19:59.734Z,98487.52
2019-03-11T04:22:28.058Z,98487.91
2019-03-11T04:24:56.180Z,98494.66
2019-03-11T04:27:25.254Z,98489.72
2019-03-11T04:29:53.295Z,98489.28
2019-03-11T04:32:21.233Z,98486.31
2019-03-11T04:34:49.778Z,98478.48
2019-03-11T04:37:17.950Z,98484.13
2019-03-11T04:39:45.967Z,98481.56
2019-03-11T04:42:14.113Z,98471.77
2019-03-11T04:44:42.108Z,98461.20
2019-03-11T04:47:10.153Z,98470.05
2019-03-11T04:49:38.219Z,98455.63
2019-03-11T04:52:07.408Z,98432.81
2019-03-11T04:54:35.545Z,98421.42
2019-03-11T04:57:03.885Z,98413.97
2019-03-11T04:59:32.935Z,98403.89
2019-03-11T05:02:00.937Z,98363.13
2019-03-11T05:04:28.938Z,98373.28
2019-03-11T05:06:57.101Z,98368.09
2019-03-11T05:09:25.062Z,98374.70
2019-03-11T05:11:53.054Z,98375.59
2019-03-11T05:14:21.604Z,98385.64
2019-03-11T05:16:49.953Z,98396.97
2019-03-11T05:19:18.479Z,98394.95
2019-03-11T05:21:46.459Z,98405.22
2019-03-11T05:24:14.469Z,98381.81
2019-03-11T05:26:43.851Z,98389.91
2019-03-11T05:29:11.811Z,98394.23
2019-03-11T05:31:39.893Z,98416.45
2019-03-11T05:34:08.018Z,98408.20
2019-03-11T05:36:36.089Z,98387.56
2019-03-11T05:39:06.915Z,98404.73
2019-03-11T05:41:35.323Z,98388.83
2019-03-11T05:44:05.282Z,98400.80
2019-03-11T05:46:35.509Z,98384.75
2019-03-11T05:49:03.831Z,98394.42
2019-03-11T05:51:32.227Z,98394.22
2019-03-11T05:54:00.518Z,98398.34
2019-03-11T05:56:28.478Z,98410.60
2019-03-11T05:58:57.420Z,98410.91
2019-03-11T06:01:25.410Z,98411.14
2019-03-11T06:03:53.418Z,98423.45
2019-03-11T06:06:21.404Z,98425.36
2019-03-11T06:08:49.808Z,98410.11
2019-03-11T06:11:17.791Z,98419.91
2019-03-11T06:13:46.145Z,98407.44
2019-03-11T06:16:14.141Z,98407.59
2019-03-11T06:18:50.817Z,98405.42
2019-03-11T06:21:27.666Z,98391.84
2019-03-11T06:23:55.693Z,98400.08
2019-03-11T06:26:23.658Z,98412.54
2019-03-11T06:28:51.951Z,98422.00
2019-03-11T06:31:19.945Z,98415.48
2019-03-11T06:33:48.307Z,98436.37
2019-03-11T06:36:16.373Z,98425.45
2019-03-11T06:38:45.682Z,98441.53
2019-03-11T06:41:13.710Z,98424.56
2019-03-11T06:43:41.797Z,98421.36
2019-03-11T06:46:10.502Z,98446.13
2019-03-11T06:48:38.765Z,98448.16
2019-03-11T06:51:06.802Z,98459.48
2019-03-11T06:53:34.969Z,98445.73
2019-03-11T06:56:02.954Z,98457.16
2019-03-11T06:58:30.941Z,98451.83
2019-03-11T07:00:59.060Z,98447.16
2019-03-11T07:03:27.396Z,98448.36
2019-03-11T07:05:55.519Z,98453.31
2019-03-11T07:08:23.565Z,98442.42
2019-03-11T07:10:51.726Z,98445.80
2019-03-11T07:13:20.252Z,98465.33
2019-03-11T07:15:48.315Z,98462.34
2019-03-11T07:18:16.293Z,98474.27
2019-03-11T07:20:44.327Z,98501.41
2019-03-11T07:23:12.424Z,98486.70
2019-03-11T07:25:40.504Z,98499.98
2019-03-11T07:28:08.919Z,98498.47
2019-03-11T07:30:36.900Z,98507.69
2019-03-11T07:33:06.955Z,98505.78
2019-03-11T07:35:35.525Z,98510.00
2019-03-11T07:38:03.855Z,98533.80
2019-03-11T07:40:31.939Z,98521.54
2019-03-11T07:43:00.237Z,98499.31
2019-03-11T07:45:28.287Z,98540.42
2019-03-11T07:47:56.673Z,98522.46
2019-03-11T07:50:24.697Z,98543.92
2019-03-11T07:52:52.723Z,98544.45
2019-03-11T07:55:20.709Z,98580.37
2019-03-11T07:57:48.686Z,98583.61
2019-03-11T08:00:16.738Z,98572.48
2019-03-11T08:02:44.791Z,98591.48
2019-03-11T08:05:12.919Z,98594.12
2019-03-11T08:08:00.071Z,98567.35
2019-03-11T08:10:41.103Z,98571.45
2019-03-11T08:13:11.959Z,98587.41
2019-03-11T08:15:44.769Z,98584.61
2019-03-11T08:18:15.591Z,98596.70
2019-03-11T08:20:46.062Z,98611.28
2019-03-11T08:23:14.069Z,98604.94
2019-03-11T08:25:42.171Z,98608.23
2019-03-11T08:28:10.242Z,98596.08
2019-03-11T08:30:38.828Z,98605.89
2019-03-11T08:33:08.211Z,98597.54
2019-03-11T08:35:36.748Z,98601.19
2019-03-11T08:38:05.508Z,98597.28
2019-03-11T08:40:33.721Z,98603.73
2019-03-11T08:43:01.807Z,98614.61
2019-03-11T08:45:29.914Z,98629.07
2019-03-11T08:47:58.020Z,98609.08
2019-03-11T08:50:25.991Z,98607.52
2019-03-11T08:52:54.772Z,98613.27
2019-03-11T08:55:22.771Z,98602.45
2019-03-11T08:57:50.820Z,98589.13
2019-03-11T09:00:18.921Z,98611.05
2019-03-11T09:02:46.956Z,98609.03
2019-03-11T09:05:14.949Z,98611.35
2019-03-11T09:07:43.179Z,98629.23
2019-03-11T09:10:12.743Z,98612.21
2019-03-11T09:12:40.888Z,98608.07
2019-03-11T09:15:11.114Z,98615.16
2019-03-11T09:17:39.225Z,98592.89
2019-03-11T09:20:08.683Z,98589.90
2019-03-11T09:22:36.926Z,98604.72
2019-03-11T09:25:06.831Z,98605.98
2019-03-11T09:27:35.632Z,98598.83
2019-03-11T09:30:05.304Z,98611.69
2019-03-11T09:32:34.558Z,98612.17
2019-03-11T09:35:03.917Z,98608.61
2019-03-11T09:37:32.388Z,98611.63
2019-03-11T09:40:00.940Z,98610.95
2019-03-11T09:42:29.690Z,98607.08
2019-03-11T09:44:57.719Z,98607.53
2019-03-11T09:47:28.386Z,98608.84
2019-03-11T09:49:58.348Z,98600.61
2019-03-11T09:52:26.513Z,98610.35
2019-03-11T09:54:54.865Z,98616.42
2019-03-11T09:57:23.276Z,98606.87
2019-03-11T09:59:51.359Z,98620.19
2019-03-11T10:02:19.422Z,98618.93
2019-03-11T10:04:47.514Z,98623.54
2019-03-11T10:07:15.805Z,98623.06
2019-03-11T10:09:44.428Z,98623.19
2019-03-11T10:12:12.495Z,98627.52
2019-03-11T10:14:40.829Z,98634.75
2019-03-11T10:17:09.522Z,98663.16
2019-03-11T10:19:37.503Z,98640.69
2019-03-11T10:22:05.765Z,98658.28
2019-03-11T10:24:33.976Z,98640.75
2019-03-11T10:27:02.324Z,98649.27
2019-03-11T10:29:30.485Z,98654.72
2019-03-11T10:31:58.591Z,98652.78
2019-03-11T10:34:26.664Z,98643.59
2019-03-11T10:36:55.284Z,98675.25
2019-03-11T10:39:23.588Z,98691.64
2019-03-11T10:41:51.996Z,98671.34
2019-03-11T10:44:21.813Z,98677.89
2019-03-11T10:46:49.938Z,98675.95
2019-03-11T10:49:21.727Z,98675.95
2019-03-11T10:51:50.014Z,98669.33
2019-03-11T10:54:18.720Z,98669.45
2019-03-11T10:56:47.570Z,98691.53
2019-03-11T10:59:15.950Z,98676.27
2019-03-11T11:01:44.184Z,98684.08
2019-03-11T11:04:12.312Z,98696.28
2019-03-11T11:06:40.970Z,98697.30
2019-03-11T11:09:09.356Z,98694.73
2019-03-11T11:11:37.793Z,98695.54
2019-03-11T11:14:05.872Z,98696.36
2019-03-11T11:16:35.066Z,98705.36
2019-03-11T11:19:03.373Z,98715.56
2019-03-11T11:21:31.831Z,98704.39
2019-03-11T11:23:59.864Z,98705.84
2019-03-11T11:26:28.259Z,98720.77
2019-03-11T11:28:56.324Z,98723.52
2019-03-11T11:31:26.112Z,98725.71
2019-03-11T11:33:57.008Z,98724.57
2019-03-11T11:36:25.686Z,98714.33
2019-03-11T11:38:53.824Z,98723.53
2019-03-11T11:41:21.999Z,98714.48
2019-03-11T11:43:50.111Z,98714.34
2019-03-11T11:46:18.172Z,98717.74
2019-03-11T11:48:47.238Z,98715.09
2019-03-11T11:51:16.309Z,98705.25
2019-03-11T11:53:44.488Z,98718.73
2019-03-11T11:56:12.657Z,98716.22
2019-03-11T11:58:40.977Z,98728.22
2019-03-11T12:01:09.527Z,98729.68
2019-03-11T12:03:37.755Z,98733.30
2019-03-11T12:06:05.763Z,98731.62
2019-03-11T12:08:34.004Z,98741.36
2019-03-11T12:11:02.045Z,98729.95
2019-03-11T12:13:30.073Z,98736.53
2019-03-11T12:15:58.356Z,98746.58
2019-03-11T12:18:26.552Z,98747.77
2019-03-11T12:20:54.591Z,98749.49
2019-03-11T12:23:22.555Z,98747.77
2019-03-11T12:25:51.349Z,98744.27
2019-03-11T12:28:19.335Z,98777.70
2019-03-11T12:30:47.486Z,98754.28
2019-03-11T12:33:15.580Z,98751.14
2019-03-11T12:35:43.901Z,98749.69
2019-03-11T12:38:12.033Z,98753.52
2019-03-11T12:40:40.571Z,98756.53
2019-03-11T12:43:08.664Z,98740.92
2019-03-11T12:45:36.783Z,98757.64
2019-03-11T12:48:04.812Z,98762.95
2019-03-11T12:50:33.197Z,98765.59
2019-03-11T12:53:01.670Z,98759.74
2019-03-11T12:55:29.915Z,98765.33
2019-03-11T12:57:58.086Z,98762.70
2019-03-11T13:00:26.092Z,98754.20
2019-03-11T13:02:54.247Z,98766.20
2019-03-11T13:05:23.989Z,98796.08
2019-03-11T13:07:54.134Z,98774.17
2019-03-11T13:10:22.195Z,98747.62
2019-03-11T13:12:50.662Z,98761.61
2019-03-11T13:15:19.089Z,98757.58
2019-03-11T13:17:47.401Z,98764.01
2019-03-11T13:20:36.358Z,98768.52
2019-03-11T13:23:04.470Z,98783.05
2019-03-11T13:25:32.892Z,98763.71
2019-03-11T13:28:01.052Z,98761.16
2019-03-11T13:30:29.068Z,98752.34
2019-03-11T13:32:57.400Z,98790.38
2019-03-11T13:35:25.438Z,98784.21
2019-03-11T13:37:53.673Z,98785.78
2019-03-11T13:40:21.744Z,98764.81
2019-03-11T13:42:49.748Z,98780.76
2019-03-11T13:45:18.593Z,98779.16
2019-03-11T13:47:46.910Z,98828.34
2019-03-11T13:50:14.936Z,98825.17
2019-03-11T13:52:44.068Z,98800.34
2019-03-11T13:55:13.435Z,98847.98
2019-03-11T13:57:41.675Z,98814.08
2019-03-11T14:00:10.874Z,98818.01
2019-03-11T14:02:38.942Z,98810.33
2019-03-11T14:05:07.252Z,98805.05
2019-03-11T14:07:35.410Z,98797.67
2019-03-11T14:10:04.753Z,98804.62
2019-03-11T14:12:32.847Z,98793.34
2019-03-11T14:15:01.009Z,98823.45
2019-03-11T14:17:29.438Z,98832.33
2019-03-11T14:19:57.734Z,98824.12
2019-03-11T14:22:26.004Z,98824.42
2019-03-11T14:24:54.341Z,98819.16
2019-03-11T14:27:22.436Z,98829.52
2019-03-11T14:29:50.668Z,98829.97
2019-03-11T14:32:20.143Z,98832.38
2019-03-11T14:34:49.501Z,98855.05
2019-03-11T14:37:17.691Z,98846.23
2019-03-11T14:39:45.997Z,98847.02
2019-03-11T14:42:14.359Z,98856.86
2019-03-11T14:44:42.754Z,98875.87
2019-03-11T14:47:11.114Z,98873.77
2019-03-11T14:49:41.153Z,98874.20
2019-03-11T14:52:09.157Z,98860.19
2019-03-11T14:54:37.243Z,98866.64
2019-03-11T14:57:05.247Z,98869.46
2019-03-11T14:59:33.266Z,98872.42
2019-03-11T15:02:02.200Z,98861.42
2019-03-11T15:04:33.376Z,98865.80
2019-03-11T15:07:01.659Z,98861.80
2019-03-11T15:09:29.723Z,98881.21
2019-03-11T15:11:57.899Z,98863.77
2019-03-11T15:14:26.274Z,98873.73
2019-03-11T15:16:55.032Z,98856.13
2019-03-11T15:19:23.377Z,98869.31
2019-03-11T15:21:51.560Z,98866.06
2019-03-11T15:24:19.589Z,98869.20
2019-03-11T15:26:47.977Z,98867.69
2019-03-11T15:29:19.963Z,98868.61
2019-03-11T15:31:47.992Z,98877.47
2019-03-11T15:34:16.218Z,98915.10
2019-03-11T15:36:44.277Z,98882.58
2019-03-11T15:39:12.229Z,98892.19
2019-03-11T15:41:40.790Z,98898.13
2019-03-11T15:44:08.843Z,98900.95
2019-03-11T15:46:39.489Z,98908.87
2019-03-11T15:49:07.329Z,98902.65
2019-03-11T15:51:37.231Z,98914.38
2019-03-11T15:54:05.445Z,98904.83
2019-03-11T15:56:33.513Z,98929.44
2019-03-11T15:59:01.687Z,98951.48
2019-03-11T16:01:29.851Z,98989.02
2019-03-11T16:03:58.135Z,99000.38
2019-03-11T16:06:26.696Z,98977.66
2019-03-11T16:08:55.021Z,98965.30
2019-03-11T16:11:23.183Z,98957.20
2019-03-11T16:13:51.631Z,98935.09
2019-03-11T16:16:19.714Z,98931.88
2019-03-11T16:18:47.770Z,98936.47
2019-03-11T16:21:15.816Z,98933.19
2019-03-11T16:23:43.845Z,98932.17
2019-03-11T16:26:12.132Z,98925.87
2019-03-11T16:28:47.771Z,98938.09
2019-03-11T16:31:11.306Z,98940.91
2019-03-11T16:33:39.526Z,98932.85
2019-03-11T16:36:07.556Z,98939.06
2019-03-11T16:38:35.779Z,98946.45
2019-03-11T16:41:04.152Z,98940.95
2019-03-11T16:43:32.831Z,98938.64
2019-03-11T16:46:01.395Z,98938.30
2019-03-11T16:48:29.761Z,98947.95
2019-03-11T16:50:57.940Z,98948.67
2019-03-11T16:53:26.004Z,98944.33
2019-03-11T16:55:55.925Z,98945.24
2019-03-11T16:58:24.190Z,98946.92
2019-03-11T17:00:53.360Z,98935.28
2019-03-11T17:03:21.618Z,98934.73
2019-03-11T17:05:49.647Z,98943.05
2019-03-11T17:08:17.738Z,98939.87
2019-03-11T17:10:45.858Z,98950.36
2019-03-11T17:13:13.991Z,98962.51
2019-03-11T17:15:42.167Z,98967.56
2019-03-11T17:18:10.139Z,98966.20
2019-03-11T17:20:38.520Z,98970.83
2019-03-11T17:23:06.852Z,98968.19
2019-03-11T17:25:35.871Z,98979.36
2019-03-11T17:28:04.115Z,98987.92
2019-03-11T17:30:32.239Z,98992.44
2019-03-11T17:33:00.417Z,98996.66
2019-03-11T17:35:28.451Z,98989.80
2019-03-11T17:37:56.634Z,98989.53
2019-03-11T17:40:24.987Z,98999.17
2019-03-11T17:42:54.511Z,99002.44
2019-03-11T17:45:22.774Z,99013.05
2019-03-11T17:47:51.042Z,99032.19
2019-03-11T17:50:19.168Z,99022.81
2019-03-11T17:52:47.181Z,99025.13
2019-03-11T17:55:15.337Z,99036.13
2019-03-11T17:57:44.323Z,99034.30
2019-03-11T18:00:17.915Z,99039.24
2019-03-11T18:02:46.008Z,99042.52
2019-03-11T18:05:14.534Z,99042.67
2019-03-11T18:07:42.768Z,99062.61
2019-03-11T18:10:10.855Z,99061.53
2019-03-11T18:12:39.234Z,99069.79
2019-03-11T18:15:07.584Z,99068.27
2019-03-11T18:17:35.607Z,99081.16
2019-03-11T18:20:04.230Z,99078.28
2019-03-11T18:22:32.438Z,99088.98
2019-03-11T18:25:00.601Z,99077.89
2019-03-11T18:27:28.827Z,99087.09
2019-03-11T18:29:56.940Z,99080.09
2019-03-11T18:32:24.944Z,99078.16
2019-03-11T18:34:52.987Z,99077.33
2019-03-11T18:37:21.140Z,99080.95
2019-03-11T18:39:49.388Z,99089.81
2019-03-11T18:42:25.475Z,99095.47
2019-03-11T18:44:47.641Z,99101.86
2019-03-11T18:47:15.725Z,99104.52
2019-03-11T18:49:43.811Z,99110.69
2019-03-11T18:52:11.985Z,99112.30
2019-03-11T18:54:40.433Z,99117.73
2019-03-11T18:57:08.569Z,99118.94
2019-03-11T18:59:36.722Z,99110.72
2019-03-11T19:02:04.811Z,99120.77
2019-03-11T19:04:32.890Z,99120.86
2019-03-11T19:07:01.201Z,99125.95
2019-03-11T19:09:30.927Z,99129.22
2019-03-11T19:11:59.229Z,99143.55
2019-03-11T19:14:27.480Z,99142.71
2019-03-11T19:16:55.833Z,99141.91
2019-03-11T19:19:24.457Z,99143.66
2019-03-11T19:21:52.701Z,99145.47
2019-03-11T19:24:20.800Z,99147.53
2019-03-11T19:26:50.669Z,99144.98
2019-03-11T19:29:18.672Z,99146.42
2019-03-11T19:31:48.481Z,99144.55
2019-03-11T19:34:16.663Z,99148.18
2019-03-11T19:36:44.936Z,99150.95
2019-03-11T19:39:16.786Z,99157.58
2019-03-11T19:41:45.042Z,99163.01
2019-03-11T19:44:12.990Z,99158.78
2019-03-11T19:46:41.109Z,99173.01
2019-03-11T19:49:09.188Z,99162.80
2019-03-11T19:51:37.892Z,99165.35
2019-03-11T19:54:06.180Z,99165.98
2019-03-11T19:56:34.145Z,99161.45
2019-03-11T19:59:02.441Z,99158.17
2019-03-11T20:01:30.616Z,99164.95
2019-03-11T20:03:59.040Z,99165.30
2019-03-11T20:06:27.466Z,99173.75
2019-03-11T20:08:55.453Z,99174.48
2019-03-11T20:11:25.160Z,99168.32
2019-03-11T20:13:56.469Z,99170.44
2019-03-11T20:16:26.157Z,99182.53
2019-03-11T20:18:55.472Z,99184.80
2019-03-11T20:21:23.592Z,99184.98
2019-03-11T20:23:51.730Z,99191.69
2019-03-11T20:26:20.645Z,99199.96
2019-03-11T20:28:48.972Z,99198.63
2019-03-11T20:31:17.222Z,99205.57
2019-03-11T20:33:45.874Z,99216.55
2019-03-11T20:36:20.609Z,99203.08
2019-03-11T20:38:44.151Z,99207.02
2019-03-11T20:41:12.935Z,99213.78
2019-03-11T20:43:42.605Z,99212.00
2019-03-11T20:46:11.220Z,99212.33
2019-03-11T20:48:39.369Z,99233.11
2019-03-11T20:51:09.031Z,99230.45
2019-03-11T20:53:37.034Z,99236.24
2019-03-11T20:56:05.152Z,99226.98
2019-03-11T20:58:33.611Z,99218.84
2019-03-11T21:01:02.845Z,99218.62
2019-03-11T21:03:33.018Z,99236.93
2019-03-11T21:06:02.293Z,99220.45
2019-03-11T21:08:32.292Z,99235.80
2019-03-11T21:11:01.545Z,99233.00
2019-03-11T21:13:29.463Z,99226.61
2019-03-11T21:15:58.073Z,99239.02
2019-03-11T21:18:26.334Z,99245.39
2019-03-11T21:21:04.123Z,99244.23
2019-03-11T21:23:26.192Z,99234.02
2019-03-11T21:25:56.694Z,99240.95
2019-03-11T21:28:25.598Z,99246.27
2019-03-11T21:30:54.492Z,99236.61
2019-03-11T21:33:24.924Z,99240.97
2019-03-11T21:35:53.546Z,99241.55
2019-03-11T21:38:22.180Z,99233.97
2019-03-11T21:40:50.362Z,99246.97
2019-03-11T21:43:18.654Z,99246.23
2019-03-11T21:45:46.973Z,99248.89
2019-03-11T21:48:15.354Z,99248.98
2019-03-11T21:50:44.906Z,99253.64
2019-03-11T21:53:13.151Z,99261.67
2019-03-11T21:55:41.304Z,99279.38
2019-03-11T21:58:13.500Z,99256.65
2019-03-11T22:00:44.018Z,99270.88
2019-03-11T22:03:13.248Z,99269.59
2019-03-11T22:05:42.322Z,99269.49
2019-03-11T22:08:10.364Z,99265.95
2019-03-11T22:10:38.356Z,99270.86
2019-03-11T22:13:06.531Z,99257.27
2019-03-11T22:15:34.587Z,99271.63
2019-03-11T22:18:02.934Z,99266.63
2019-03-11T22:20:31.448Z,99276.33
2019-03-11T22:22:59.553Z,99274.42
2019-03-11T22:25:27.526Z,99267.61
2019-03-11T22:27:57.616Z,99268.55
2019-03-11T22:30:26.036Z,99259.76
2019-03-11T22:32:54.065Z,99266.97
2019-03-11T22:35:23.601Z,99273.05
2019-03-11T22:37:51.807Z,99271.00
2019-03-11T22:40:20.916Z,99267.22
2019-03-11T22:42:49.203Z,99265.06
2019-03-11T22:45:20.332Z,99274.09
2019-03-11T22:47:49.342Z,99275.88
2019-03-11T22:50:18.148Z,99280.17
2019-03-11T22:52:47.403Z,99286.24
2019-03-11T22:55:15.518Z,99288.72
2019-03-11T22:57:43.873Z,99288.02
2019-03-11T23:00:31.671Z,99288.35
2019-03-11T23:03:01.549Z,99292.48
2019-03-11T23:05:30.111Z,99289.28
2019-03-11T23:07:59.607Z,99291.73
2019-03-11T23:10:28.319Z,99293.74
2019-03-11T23:12:56.491Z,99294.22
2019-03-11T23:15:24.911Z,99297.95
2019-03-11T23:17:53.024Z,99295.89
2019-03-11T23:20:21.386Z,99309.16
2019-03-11T23:22:49.638Z,99310.57
2019-03-11T23:25:17.803Z,99312.30
2019-03-11T23:27:46.940Z,99313.27
2019-03-11T23:30:16.746Z,99315.06
2019-03-11T23:32:45.235Z,99318.46
2019-03-11T23:35:13.354Z,99316.84
2019-03-11T23:37:41.600Z,99318.09
2019-03-11T23:40:09.855Z,99327.09
2019-03-11T23:42:38.040Z,99323.16
2019-03-11T23:45:06.063Z,99320.61
2019-03-11T23:47:34.212Z,99327.44
2019-03-11T23:50:02.506Z,99333.06
2019-03-11T23:52:32.906Z,99327.88
2019-03-11T23:55:02.231Z,99334.90
2019-03-11T23:57:31.507Z,99339.88
